createdAt,value
2018-12-26T00:00:11.352Z,3.40
2018-12-26T00:02:42.359Z,3.40
2018-12-26T00:05:10.285Z,2.90
2018-12-26T00:07:38.296Z,3.40
2018-12-26T00:10:06.461Z,3.50
2018-12-26T00:12:37.969Z,3.10
2018-12-26T00:15:06.324Z,3.00
2018-12-26T00:17:34.406Z,3.20
2018-12-26T00:20:03.913Z,3.10
2018-12-26T00:22:32.097Z,3.20
2018-12-26T00:25:03.258Z,3.10
2018-12-26T00:27:31.266Z,3.00
2018-12-26T00:29:59.149Z,3.20
2018-12-26T00:32:27.145Z,2.60
2018-12-26T00:34:57.357Z,2.80
2018-12-26T00:37:25.506Z,3.10
2018-12-26T00:39:53.631Z,3.10
2018-12-26T00:42:21.522Z,3.30
2018-12-26T00:44:49.610Z,2.60
2018-12-26T00:47:20.220Z,3.00
2018-12-26T00:49:48.249Z,3.10
2018-12-26T00:52:16.309Z,3.00
2018-12-26T00:54:44.257Z,2.90
2018-12-26T00:57:15.809Z,2.60
2018-12-26T00:59:43.949Z,3.00
2018-12-26T01:02:11.835Z,3.10
2018-12-26T01:04:39.843Z,2.70
2018-12-26T01:07:07.795Z,3.00
2018-12-26T01:09:35.856Z,2.70
2018-12-26T01:12:03.838Z,2.60
2018-12-26T01:14:31.851Z,2.70
2018-12-26T01:17:01.409Z,2.90
2018-12-26T01:19:29.807Z,2.60
2018-12-26T01:22:01.036Z,2.80
2018-12-26T01:24:28.914Z,2.80
2018-12-26T01:26:56.870Z,3.10
2018-12-26T01:29:24.885Z,2.90
2018-12-26T01:31:52.833Z,2.70
2018-12-26T01:34:20.881Z,3.00
2018-12-26T01:36:48.927Z,3.20
2018-12-26T01:39:16.871Z,3.00
2018-12-26T01:41:44.874Z,3.30
2018-12-26T01:44:13.023Z,3.20
2018-12-26T01:46:41.043Z,2.90
2018-12-26T01:49:08.891Z,3.00
2018-12-26T01:51:36.911Z,3.20
2018-12-26T01:54:04.869Z,3.30
2018-12-26T01:56:32.796Z,3.10
2018-12-26T01:59:00.820Z,3.00
2018-12-26T02:01:28.757Z,3.20
2018-12-26T02:03:56.777Z,3.20
2018-12-26T02:06:24.763Z,3.20
2018-12-26T02:08:52.658Z,3.40
2018-12-26T02:11:20.741Z,3.10
2018-12-26T02:13:48.689Z,3.20
2018-12-26T02:16:16.851Z,2.90
2018-12-26T02:18:44.733Z,3.30
2018-12-26T02:21:12.659Z,3.20
2018-12-26T02:23:43.737Z,3.50
2018-12-26T02:26:11.704Z,3.60
2018-12-26T02:28:39.559Z,3.00
2018-12-26T02:31:10.718Z,3.20
2018-12-26T02:33:38.787Z,3.30
2018-12-26T02:36:06.732Z,3.50
2018-12-26T02:38:34.795Z,3.80
2018-12-26T02:41:02.683Z,3.50
2018-12-26T02:43:30.708Z,3.50
2018-12-26T02:45:58.627Z,3.60
2018-12-26T02:48:26.504Z,4.10
2018-12-26T02:50:54.945Z,4.20
2018-12-26T02:53:22.795Z,4.00
2018-12-26T02:55:50.901Z,3.90
2018-12-26T02:58:18.856Z,4.10
2018-12-26T03:00:46.771Z,4.10
2018-12-26T03:03:14.734Z,3.90
2018-12-26T03:05:42.837Z,4.00
2018-12-26T03:08:10.771Z,4.20
2018-12-26T03:10:38.797Z,4.10
2018-12-26T03:13:06.696Z,3.80
2018-12-26T03:15:34.502Z,4.20
2018-12-26T03:18:02.504Z,4.10
2018-12-26T03:20:30.496Z,3.90
2018-12-26T03:22:58.427Z,4.40
2018-12-26T03:25:26.445Z,4.10
2018-12-26T03:27:54.390Z,4.10
2018-12-26T03:30:22.241Z,4.20
2018-12-26T03:32:50.229Z,4.30
2018-12-26T03:35:18.218Z,4.20
2018-12-26T03:37:46.099Z,4.40
2018-12-26T03:40:14.142Z,4.20
2018-12-26T03:42:44.447Z,4.40
2018-12-26T03:45:12.760Z,4.40
2018-12-26T03:47:42.175Z,4.40
2018-12-26T03:50:10.242Z,4.20
2018-12-26T03:52:38.109Z,4.30
2018-12-26T03:55:06.152Z,4.70
2018-12-26T03:57:34.133Z,4.50
2018-12-26T04:00:02.174Z,4.70
2018-12-26T04:02:30.179Z,4.40
2018-12-26T04:04:58.267Z,4.50
2018-12-26T04:07:26.137Z,4.90
2018-12-26T04:09:54.286Z,4.30
2018-12-26T04:12:22.275Z,4.60
2018-12-26T04:14:50.268Z,4.40
2018-12-26T04:17:18.197Z,4.60
2018-12-26T04:19:46.595Z,5.10
2018-12-26T04:22:14.902Z,4.70
2018-12-26T04:24:45.521Z,4.80
2018-12-26T04:27:15.632Z,4.50
2018-12-26T04:29:43.775Z,4.60
2018-12-26T04:32:11.997Z,4.40
2018-12-26T04:34:40.385Z,4.40
2018-12-26T04:37:09.791Z,4.70
2018-12-26T04:39:38.806Z,4.60
2018-12-26T04:42:07.099Z,4.80
2018-12-26T04:44:35.825Z,4.60
2018-12-26T04:47:05.366Z,4.70
2018-12-26T04:49:33.511Z,4.70
2018-12-26T04:52:01.528Z,4.50
2018-12-26T04:54:29.585Z,4.50
2018-12-26T04:56:57.586Z,5.00
2018-12-26T04:59:25.683Z,5.20
2018-12-26T05:01:53.861Z,5.00
2018-12-26T05:04:22.082Z,5.10
2018-12-26T05:06:57.103Z,5.10
2018-12-26T05:09:27.397Z,4.90
2018-12-26T05:11:55.559Z,5.00
2018-12-26T05:14:23.572Z,5.10
2018-12-26T05:16:51.817Z,4.90
2018-12-26T05:19:19.848Z,4.90
2018-12-26T05:21:48.014Z,4.90
2018-12-26T05:24:16.058Z,4.90
2018-12-26T05:26:44.124Z,4.80
2018-12-26T05:29:12.093Z,5.00
2018-12-26T05:31:40.125Z,5.10
2018-12-26T05:34:14.005Z,5.10
2018-12-26T05:36:42.531Z,5.40
2018-12-26T05:39:10.699Z,5.40
2018-12-26T05:41:38.800Z,5.00
2018-12-26T05:44:06.940Z,5.30
2018-12-26T05:46:35.131Z,5.60
2018-12-26T05:49:03.167Z,5.30
2018-12-26T05:51:31.270Z,5.20
2018-12-26T05:53:59.368Z,5.10
2018-12-26T05:56:27.744Z,5.40
2018-12-26T05:59:07.384Z,4.80
2018-12-26T06:01:39.855Z,5.00
2018-12-26T06:04:07.773Z,5.20
2018-12-26T06:06:36.826Z,5.50
2018-12-26T06:09:08.380Z,5.20
2018-12-26T06:11:37.292Z,5.30
2018-12-26T06:14:05.394Z,5.80
2018-12-26T06:16:33.651Z,5.40
2018-12-26T06:19:01.738Z,5.20
2018-12-26T06:21:29.688Z,5.20
2018-12-26T06:23:57.807Z,5.10
2018-12-26T06:26:25.971Z,5.10
2018-12-26T06:28:57.840Z,5.30
2018-12-26T06:31:27.813Z,5.20
2018-12-26T06:34:00.102Z,5.70
2018-12-26T06:36:33.970Z,5.30
2018-12-26T06:39:02.225Z,5.70
2018-12-26T06:41:30.188Z,5.70
2018-12-26T06:43:59.217Z,5.20
2018-12-26T06:46:27.293Z,5.30
2018-12-26T06:48:57.995Z,5.30
2018-12-26T06:51:26.007Z,5.50
2018-12-26T06:53:54.105Z,5.40
2018-12-26T06:56:21.960Z,5.40
2018-12-26T06:58:49.912Z,5.10
2018-12-26T07:01:17.896Z,5.10
2018-12-26T07:03:46.287Z,5.20
2018-12-26T07:06:14.235Z,5.70
2018-12-26T07:08:42.232Z,5.70
2018-12-26T07:11:10.077Z,5.50
2018-12-26T07:13:37.955Z,5.80
2018-12-26T07:16:05.933Z,5.60
2018-12-26T07:18:33.776Z,5.80
2018-12-26T07:21:01.670Z,5.50
2018-12-26T07:23:29.635Z,5.70
2018-12-26T07:25:57.597Z,5.20
2018-12-26T07:28:25.671Z,5.30
2018-12-26T07:30:53.520Z,5.60
2018-12-26T07:33:21.389Z,5.60
2018-12-26T07:35:49.388Z,5.70
2018-12-26T07:38:17.239Z,5.60
2018-12-26T07:40:45.088Z,5.50
2018-12-26T07:43:13.052Z,5.70
2018-12-26T07:45:40.953Z,5.50
2018-12-26T07:48:08.818Z,6.00
2018-12-26T07:50:36.774Z,5.60
2018-12-26T07:53:04.613Z,6.00
2018-12-26T07:55:32.472Z,5.90
2018-12-26T07:58:00.476Z,5.70
2018-12-26T08:00:28.355Z,5.80
2018-12-26T08:02:56.314Z,5.80
2018-12-26T08:05:26.014Z,5.80
2018-12-26T08:07:53.841Z,5.80
2018-12-26T08:10:21.782Z,5.70
2018-12-26T08:12:49.792Z,5.70
2018-12-26T08:15:17.690Z,6.00
2018-12-26T08:17:45.528Z,6.00
2018-12-26T08:20:13.496Z,5.80
2018-12-26T08:22:41.385Z,5.80
2018-12-26T08:25:09.584Z,6.00
2018-12-26T08:27:37.508Z,6.10
2018-12-26T08:30:05.691Z,6.00
2018-12-26T08:32:33.708Z,5.90
2018-12-26T08:35:01.687Z,5.80
2018-12-26T08:37:29.930Z,5.90
2018-12-26T08:39:57.827Z,5.80
2018-12-26T08:42:25.773Z,6.20
2018-12-26T08:44:53.745Z,6.10
2018-12-26T08:47:21.686Z,5.90
2018-12-26T08:49:49.702Z,6.50
2018-12-26T08:52:17.777Z,6.10
2018-12-26T08:54:45.747Z,6.00
2018-12-26T08:57:13.717Z,5.50
2018-12-26T08:59:42.890Z,5.60
2018-12-26T09:02:10.843Z,5.50
2018-12-26T09:04:38.780Z,6.20
2018-12-26T09:07:06.691Z,6.50
2018-12-26T09:09:34.803Z,6.30
2018-12-26T09:12:02.931Z,6.30
2018-12-26T09:14:30.891Z,6.60
2018-12-26T09:16:58.932Z,6.20
2018-12-26T09:19:26.884Z,6.40
2018-12-26T09:21:54.787Z,6.20
2018-12-26T09:24:23.278Z,6.40
2018-12-26T09:26:51.388Z,6.50
2018-12-26T09:29:19.246Z,6.70
2018-12-26T09:31:47.149Z,6.70
2018-12-26T09:34:15.355Z,6.60
2018-12-26T09:36:43.255Z,6.90
2018-12-26T09:39:11.977Z,6.70
2018-12-26T09:41:40.163Z,6.80
2018-12-26T09:44:08.056Z,6.30
2018-12-26T09:46:35.935Z,6.20
2018-12-26T09:49:03.903Z,6.30
2018-12-26T09:51:33.916Z,6.10
2018-12-26T09:54:03.389Z,6.40
2018-12-26T09:56:31.273Z,5.90
2018-12-26T09:58:59.159Z,6.20
2018-12-26T10:01:27.248Z,6.30
2018-12-26T10:03:55.095Z,6.10
2018-12-26T10:06:23.013Z,6.30
2018-12-26T10:08:51.410Z,6.40
2018-12-26T10:11:19.349Z,6.30
2018-12-26T10:13:47.162Z,6.80
2018-12-26T10:16:15.148Z,6.70
2018-12-26T10:18:43.128Z,6.80
2018-12-26T10:21:11.107Z,6.70
2018-12-26T10:23:38.963Z,6.60
2018-12-26T10:26:06.941Z,6.90
2018-12-26T10:28:34.948Z,6.60
2018-12-26T10:31:03.035Z,7.10
2018-12-26T10:33:31.030Z,6.90
2018-12-26T10:35:58.914Z,6.90
2018-12-26T10:38:26.795Z,7.00
2018-12-26T10:40:54.815Z,6.90
2018-12-26T10:43:24.931Z,6.90
2018-12-26T10:45:52.797Z,7.10
2018-12-26T10:48:20.778Z,7.30
2018-12-26T10:50:48.693Z,7.00
2018-12-26T10:53:16.637Z,7.40
2018-12-26T10:55:44.621Z,7.50
2018-12-26T10:58:12.818Z,7.80
2018-12-26T11:00:40.763Z,7.40
2018-12-26T11:03:08.847Z,7.50
2018-12-26T11:05:36.697Z,7.70
2018-12-26T11:08:04.643Z,7.30
2018-12-26T11:10:32.675Z,7.50
2018-12-26T11:13:00.665Z,7.50
2018-12-26T11:15:28.938Z,7.50
2018-12-26T11:17:57.055Z,7.30
2018-12-26T11:20:25.276Z,7.60
2018-12-26T11:22:53.356Z,7.60
2018-12-26T11:25:21.636Z,7.30
2018-12-26T11:27:49.518Z,7.60
2018-12-26T11:30:17.435Z,7.60
2018-12-26T11:32:45.507Z,7.50
2018-12-26T11:35:13.446Z,7.50
2018-12-26T11:37:41.368Z,7.30
2018-12-26T11:40:10.132Z,7.50
2018-12-26T11:42:38.027Z,7.00
2018-12-26T11:45:06.514Z,7.00
2018-12-26T11:47:34.384Z,6.70
2018-12-26T11:50:02.787Z,7.10
2018-12-26T11:52:30.854Z,7.20
2018-12-26T11:54:59.213Z,7.40
2018-12-26T11:57:27.270Z,7.40
2018-12-26T11:59:55.756Z,6.90
2018-12-26T12:02:26.559Z,6.90
2018-12-26T12:04:54.627Z,7.20
2018-12-26T12:07:22.736Z,6.70
2018-12-26T12:09:50.767Z,6.70
2018-12-26T12:12:21.363Z,6.40
2018-12-26T12:14:49.731Z,7.10
2018-12-26T12:17:18.582Z,7.50
2018-12-26T12:19:46.589Z,7.40
2018-12-26T12:22:14.640Z,7.30
2018-12-26T12:24:43.533Z,7.50
2018-12-26T12:27:11.418Z,7.30
2018-12-26T12:29:39.863Z,7.30
2018-12-26T12:32:07.764Z,7.20
2018-12-26T12:34:37.046Z,7.50
2018-12-26T12:37:05.247Z,7.50
2018-12-26T12:39:35.957Z,7.30
2018-12-26T12:42:04.000Z,7.00
2018-12-26T12:44:31.973Z,6.90
2018-12-26T12:47:00.080Z,7.70
2018-12-26T12:49:28.528Z,7.40
2018-12-26T12:51:56.776Z,7.90
2018-12-26T12:54:27.403Z,8.00
2018-12-26T12:56:55.435Z,7.40
2018-12-26T12:59:23.416Z,7.80
2018-12-26T13:01:51.364Z,7.40
2018-12-26T13:04:19.398Z,7.60
2018-12-26T13:06:47.389Z,7.50
2018-12-26T13:09:15.493Z,7.40
2018-12-26T13:11:45.785Z,7.30
2018-12-26T13:14:14.026Z,7.70
2018-12-26T13:16:42.053Z,7.30
2018-12-26T13:19:10.009Z,7.40
2018-12-26T13:21:38.283Z,7.50
2018-12-26T13:24:06.282Z,7.30
2018-12-26T13:26:34.326Z,7.70
2018-12-26T13:29:02.351Z,7.40
2018-12-26T13:31:30.336Z,7.40
2018-12-26T13:34:03.412Z,7.60
2018-12-26T13:36:31.990Z,7.90
2018-12-26T13:39:00.016Z,7.70
2018-12-26T13:41:29.380Z,8.00
2018-12-26T13:43:57.539Z,8.00
2018-12-26T13:46:33.558Z,7.90
2018-12-26T13:48:55.451Z,7.70
2018-12-26T13:51:23.985Z,8.10
2018-12-26T13:53:52.001Z,8.20
2018-12-26T13:56:21.297Z,8.60
2018-12-26T13:58:49.408Z,8.20
2018-12-26T14:01:17.310Z,8.30
2018-12-26T14:03:45.202Z,8.20
2018-12-26T14:06:13.174Z,8.40
2018-12-26T14:08:41.005Z,8.10
2018-12-26T14:11:08.894Z,8.00
2018-12-26T14:13:36.878Z,7.70
2018-12-26T14:16:04.732Z,7.80
2018-12-26T14:18:32.967Z,7.80
2018-12-26T14:21:00.978Z,8.30
2018-12-26T14:23:28.783Z,8.20
2018-12-26T14:25:56.710Z,8.30
2018-12-26T14:28:24.716Z,8.30
2018-12-26T14:30:52.584Z,8.30
2018-12-26T14:33:20.455Z,8.30
2018-12-26T14:35:58.093Z,8.30
2018-12-26T14:38:26.628Z,8.40
2018-12-26T14:40:54.638Z,8.40
2018-12-26T14:43:22.645Z,8.40
2018-12-26T14:45:50.531Z,8.40
2018-12-26T14:48:18.400Z,8.40
2018-12-26T14:50:46.352Z,8.40
2018-12-26T14:53:14.245Z,8.50
2018-12-26T14:55:42.144Z,8.20
2018-12-26T14:58:10.158Z,8.20
2018-12-26T15:00:38.071Z,8.40
2018-12-26T15:03:05.933Z,8.70
2018-12-26T15:05:33.956Z,8.30
2018-12-26T15:08:01.863Z,8.30
2018-12-26T15:10:29.860Z,8.10
2018-12-26T15:12:57.723Z,8.50
2018-12-26T15:15:25.766Z,8.80
2018-12-26T15:17:54.764Z,8.20
2018-12-26T15:20:22.825Z,8.40
2018-12-26T15:22:50.854Z,8.40
2018-12-26T15:25:18.752Z,8.50
2018-12-26T15:27:46.639Z,8.40
2018-12-26T15:30:14.631Z,8.40
2018-12-26T15:32:42.651Z,8.00
2018-12-26T15:35:10.522Z,8.00
2018-12-26T15:37:38.589Z,8.00
2018-12-26T15:40:09.056Z,7.70
2018-12-26T15:42:36.972Z,7.70
2018-12-26T15:45:05.197Z,7.80
2018-12-26T15:47:33.168Z,8.10
2018-12-26T15:50:01.054Z,7.70
2018-12-26T15:52:28.941Z,7.80
2018-12-26T15:54:57.017Z,7.70
2018-12-26T15:57:24.903Z,7.70
2018-12-26T15:59:52.797Z,8.00
2018-12-26T16:02:20.840Z,7.80
2018-12-26T16:04:48.828Z,8.10
2018-12-26T16:07:16.911Z,7.80
2018-12-26T16:09:44.855Z,7.70
2018-12-26T16:12:12.712Z,7.80
2018-12-26T16:14:40.778Z,7.50
2018-12-26T16:17:08.661Z,7.40
2018-12-26T16:19:36.517Z,7.60
2018-12-26T16:22:04.519Z,7.40
2018-12-26T16:24:33.777Z,7.10
2018-12-26T16:27:01.693Z,7.00
2018-12-26T16:29:29.755Z,7.30
2018-12-26T16:31:57.651Z,7.20
2018-12-26T16:34:25.729Z,7.30
2018-12-26T16:36:53.640Z,6.90
2018-12-26T16:39:21.573Z,6.90
2018-12-26T16:41:49.592Z,7.00
2018-12-26T16:44:17.583Z,6.40
2018-12-26T16:46:45.569Z,6.40
2018-12-26T16:49:13.446Z,6.40
2018-12-26T16:51:41.821Z,6.20
2018-12-26T16:54:09.877Z,6.10
2018-12-26T16:56:37.814Z,6.00
2018-12-26T16:59:05.769Z,6.10
2018-12-26T17:01:33.688Z,6.10
2018-12-26T17:04:01.739Z,5.90
2018-12-26T17:06:29.711Z,6.00
2018-12-26T17:08:57.661Z,6.10
2018-12-26T17:19:25.075Z,5.80
2018-12-26T17:21:52.876Z,5.50
2018-12-26T17:24:20.856Z,5.80
2018-12-26T17:26:48.662Z,5.50
2018-12-26T17:29:16.443Z,5.40
2018-12-26T17:31:44.486Z,5.10
2018-12-26T17:34:12.789Z,5.20
2018-12-26T17:36:40.641Z,5.20
2018-12-26T17:39:08.553Z,5.50
2018-12-26T17:41:36.371Z,5.50
2018-12-26T17:44:04.176Z,5.20
2018-12-26T17:46:32.215Z,5.30
2018-12-26T17:49:00.023Z,4.90
2018-12-26T17:51:27.868Z,4.90
2018-12-26T17:54:51.846Z,4.90
2018-12-26T17:57:32.404Z,5.20
2018-12-26T18:00:38.787Z,5.00
2018-12-26T18:03:06.589Z,4.80
2018-12-26T18:05:34.485Z,4.60
2018-12-26T18:08:02.361Z,5.00
2018-12-26T18:10:30.227Z,5.10
2018-12-26T18:12:58.019Z,4.80
2018-12-26T18:15:25.899Z,4.90
2018-12-26T18:17:53.776Z,5.10
2018-12-26T18:20:21.590Z,5.10
2018-12-26T18:22:49.415Z,4.90
2018-12-26T18:25:17.332Z,4.80
2018-12-26T18:27:45.145Z,4.90
2018-12-26T18:30:13.015Z,4.90
2018-12-26T18:32:40.957Z,5.00
2018-12-26T18:35:09.686Z,5.00
2018-12-26T18:37:37.619Z,4.80
2018-12-26T18:40:07.015Z,5.00
2018-12-26T18:42:34.938Z,5.00
2018-12-26T18:45:04.052Z,5.20
2018-12-26T18:47:31.870Z,5.10
2018-12-26T18:49:59.694Z,4.80
2018-12-26T18:52:27.714Z,4.50
2018-12-26T18:54:55.633Z,4.80
2018-12-26T18:57:23.460Z,4.80
2018-12-26T18:59:51.367Z,4.40
2018-12-26T19:02:20.390Z,4.50
2018-12-26T19:04:48.269Z,4.60
2018-12-26T19:07:16.189Z,4.20
2018-12-26T19:09:43.996Z,4.40
2018-12-26T19:12:12.002Z,4.10
2018-12-26T19:14:40.381Z,4.50
2018-12-26T19:17:08.514Z,4.30
2018-12-26T19:19:36.340Z,4.10
2018-12-26T19:22:04.329Z,4.20
2018-12-26T19:24:32.243Z,4.30
2018-12-26T19:27:02.447Z,4.70
2018-12-26T19:29:30.443Z,4.20
2018-12-26T19:31:58.385Z,4.40
2018-12-26T19:34:26.515Z,4.60
2018-12-26T19:36:54.419Z,4.50
2018-12-26T19:39:22.301Z,4.40
2018-12-26T19:41:50.311Z,4.50
2018-12-26T19:44:18.284Z,4.50
2018-12-26T19:46:46.115Z,4.60
2018-12-26T19:49:13.989Z,4.70
2018-12-26T19:51:41.933Z,4.40
2018-12-26T19:54:09.730Z,4.50
2018-12-26T19:56:37.704Z,4.70
2018-12-26T19:59:05.572Z,4.50
2018-12-26T20:01:33.503Z,4.40
2018-12-26T20:04:01.732Z,4.80
2018-12-26T20:06:29.525Z,4.40
2018-12-26T20:08:57.350Z,4.50
2018-12-26T20:11:25.326Z,4.60
2018-12-26T20:13:53.250Z,4.80
2018-12-26T20:16:21.183Z,4.60
2018-12-26T20:18:49.092Z,4.40
2018-12-26T20:21:18.511Z,4.60
2018-12-26T20:23:46.331Z,4.70
2018-12-26T20:26:14.525Z,4.60
2018-12-26T20:28:43.291Z,4.30
2018-12-26T20:31:11.150Z,4.20
2018-12-26T20:33:39.036Z,4.40
2018-12-26T20:36:07.598Z,4.20
2018-12-26T20:38:38.393Z,4.50
2018-12-26T20:41:08.785Z,4.30
2018-12-26T20:43:37.760Z,4.30
2018-12-26T20:46:06.160Z,4.50
2018-12-26T20:48:34.251Z,4.20
2018-12-26T20:51:02.073Z,4.30
2018-12-26T20:53:29.918Z,4.10
2018-12-26T20:55:58.069Z,4.30
2018-12-26T20:58:25.941Z,4.10
2018-12-26T21:00:53.921Z,4.40
2018-12-26T21:03:21.793Z,4.30
2018-12-26T21:05:49.746Z,4.50
2018-12-26T21:08:17.710Z,4.10
2018-12-26T21:10:45.532Z,4.50
2018-12-26T21:13:15.507Z,4.10
2018-12-26T21:15:43.472Z,4.10
2018-12-26T21:18:11.380Z,4.20
2018-12-26T21:20:39.239Z,4.50
2018-12-26T21:23:08.168Z,4.30
2018-12-26T21:25:36.987Z,4.20
2018-12-26T21:28:05.006Z,4.30
2018-12-26T21:30:32.975Z,4.50
2018-12-26T21:33:02.749Z,4.50
2018-12-26T21:35:34.848Z,4.30
2018-12-26T21:38:05.458Z,4.10
2018-12-26T21:40:36.587Z,4.30
2018-12-26T21:43:04.655Z,4.20
2018-12-26T21:45:33.826Z,3.90
2018-12-26T21:48:03.295Z,3.60
2018-12-26T21:50:31.323Z,3.70
2018-12-26T21:53:01.971Z,4.00
2018-12-26T21:55:29.955Z,3.70
2018-12-26T21:57:59.665Z,3.70
2018-12-26T22:00:27.686Z,3.80
2018-12-26T22:02:55.718Z,4.10
2018-12-26T22:05:25.798Z,3.60
2018-12-26T22:07:53.856Z,3.60
2018-12-26T22:10:22.879Z,3.70
2018-12-26T22:12:52.484Z,3.50
2018-12-26T22:15:20.457Z,3.50
2018-12-26T22:17:48.611Z,3.60
2018-12-26T22:20:16.717Z,3.50
2018-12-26T22:22:44.790Z,3.70
2018-12-26T22:25:12.894Z,3.50
2018-12-26T22:27:40.856Z,3.60
2018-12-26T22:30:10.661Z,3.00
2018-12-26T22:32:40.792Z,3.50
2018-12-26T22:35:10.821Z,3.90
2018-12-26T22:37:38.777Z,3.80
2018-12-26T22:40:08.714Z,3.80
2018-12-26T22:42:38.879Z,4.10
2018-12-26T22:45:07.835Z,3.90
2018-12-26T22:47:35.817Z,4.10
2018-12-26T22:50:04.616Z,3.60
2018-12-26T22:52:32.674Z,3.80
2018-12-26T22:55:00.774Z,3.80
2018-12-26T22:57:31.862Z,3.80
2018-12-26T22:59:59.983Z,3.80
2018-12-26T23:02:38.651Z,4.30
2018-12-26T23:05:00.770Z,4.20
2018-12-26T23:07:28.916Z,4.40
2018-12-26T23:09:56.843Z,4.40
2018-12-26T23:12:25.794Z,4.30
2018-12-26T23:14:53.761Z,4.10
2018-12-26T23:17:21.859Z,4.10
2018-12-26T23:19:56.087Z,4.00
2018-12-26T23:22:24.987Z,4.10
2018-12-26T23:24:53.019Z,4.10
2018-12-26T23:27:24.083Z,4.10
2018-12-26T23:29:53.199Z,4.10
2018-12-26T23:32:22.544Z,4.20
2018-12-26T23:34:50.501Z,4.10
2018-12-26T23:37:18.449Z,4.00
2018-12-26T23:39:48.504Z,4.30
2018-12-26T23:42:16.388Z,4.10
2018-12-26T23:44:44.322Z,4.40
2018-12-26T23:47:12.455Z,4.10
2018-12-26T23:49:40.506Z,4.40
2018-12-26T23:52:13.481Z,4.30
2018-12-26T23:54:43.603Z,4.00
2018-12-26T23:57:11.527Z,3.80
2018-12-26T23:59:39.442Z,4.30
